sensor_id;sensor_type;location;lat;lon;timestamp;pressure;altitude;pressure_sealevel;temperature;humidity
43741;BME280;29352;48.708;9.290;2023-04-02T00:04:17;97074.28;;;0.30;81.63
43741;BME280;29352;48.708;9.290;2023-04-02T00:06:52;97080.19;;;0.32;81.93
43741;BME280;29352;48.708;9.290;2023-04-02T00:09:24;97084.59;;;0.40;81.32
43741;BME280;29352;48.708;9.290;2023-04-02T00:11:55;97077.44;;;0.26;81.90
43741;BME280;29352;48.708;9.290;2023-04-02T00:14:28;97079.22;;;0.17;82.09
43741;BME280;29352;48.708;9.290;2023-04-02T00:16:57;97080.53;;;0.29;81.95
43741;BME280;29352;48.708;9.290;2023-04-02T00:20:03;97082.81;;;0.32;81.83
43741;BME280;29352;48.708;9.290;2023-04-02T00:22:31;97080.03;;;0.17;82.53
43741;BME280;29352;48.708;9.290;2023-04-02T00:25:00;97089.25;;;0.13;82.61
43741;BME280;29352;48.708;9.290;2023-04-02T00:27:31;97089.56;;;0.27;82.15
43741;BME280;29352;48.708;9.290;2023-04-02T00:29:58;97083.31;;;0.28;82.09
43741;BME280;29352;48.708;9.290;2023-04-02T00:32:26;97086.53;;;0.46;81.43
43741;BME280;29352;48.708;9.290;2023-04-02T00:34:56;97092.00;;;0.28;81.79
43741;BME280;29352;48.708;9.290;2023-04-02T00:37:27;97086.47;;;0.15;82.26
43741;BME280;29352;48.708;9.290;2023-04-02T00:40:25;97093.88;;;0.03;82.42
43741;BME280;29352;48.708;9.290;2023-04-02T00:42:57;97084.94;;;0.29;81.93
43741;BME280;29352;48.708;9.290;2023-04-02T00:45:30;97092.69;;;0.14;82.06
43741;BME280;29352;48.708;9.290;2023-04-02T00:49:04;97092.00;;;0.36;81.33
43741;BME280;29352;48.708;9.290;2023-04-02T00:51:23;97091.13;;;0.44;81.39
43741;BME280;29352;48.708;9.290;2023-04-02T00:53:57;97094.09;;;0.41;81.44
43741;BME280;29352;48.708;9.290;2023-04-02T00:56:43;97088.16;;;0.47;81.16
43741;BME280;29352;48.708;9.290;2023-04-02T00:59:32;97092.00;;;0.36;81.37
43741;BME280;29352;48.708;9.290;2023-04-02T01:04:40;97097.94;;;0.14;81.94
43741;BME280;29352;48.708;9.290;2023-04-02T01:07:09;97089.06;;;0.23;81.82
43741;BME280;29352;48.708;9.290;2023-04-02T01:21:25;97105.59;;;0.32;81.38
43741;BME280;29352;48.708;9.290;2023-04-02T01:24:08;97100.69;;;0.20;81.49
43741;BME280;29352;48.708;9.290;2023-04-02T01:26:54;97111.19;;;0.29;81.59
43741;BME280;29352;48.708;9.290;2023-04-02T01:29:34;97107.47;;;0.15;82.06
43741;BME280;29352;48.708;9.290;2023-04-02T01:32:08;97104.97;;;0.21;81.63
43741;BME280;29352;48.708;9.290;2023-04-02T01:34:37;97107.25;;;0.33;81.26
43741;BME280;29352;48.708;9.290;2023-04-02T01:37:37;97109.06;;;0.24;81.17
43741;BME280;29352;48.708;9.290;2023-04-02T01:40:21;97111.38;;;0.27;81.26
43741;BME280;29352;48.708;9.290;2023-04-02T01:45:40;97117.56;;;0.34;80.62
43741;BME280;29352;48.708;9.290;2023-04-02T01:48:14;97123.66;;;0.66;79.90
43741;BME280;29352;48.708;9.290;2023-04-02T01:50:48;97126.03;;;0.53;80.00
43741;BME280;29352;48.708;9.290;2023-04-02T01:53:20;97121.56;;;0.61;80.15
43741;BME280;29352;48.708;9.290;2023-04-02T01:55:54;97118.00;;;0.54;80.35
43741;BME280;29352;48.708;9.290;2023-04-02T01:58:25;97124.25;;;0.45;80.77
43741;BME280;29352;48.708;9.290;2023-04-02T02:01:06;97133.34;;;0.34;81.46
43741;BME280;29352;48.708;9.290;2023-04-02T02:03:41;97132.47;;;0.42;80.83
43741;BME280;29352;48.708;9.290;2023-04-02T02:06:13;97130.03;;;0.40;81.02
43741;BME280;29352;48.708;9.290;2023-04-02T02:09:01;97128.75;;;0.36;81.19
43741;BME280;29352;48.708;9.290;2023-04-02T02:11:31;97124.72;;;0.48;80.82
43741;BME280;29352;48.708;9.290;2023-04-02T02:14:00;97125.97;;;0.30;81.46
43741;BME280;29352;48.708;9.290;2023-04-02T02:16:29;97129.56;;;0.37;81.52
43741;BME280;29352;48.708;9.290;2023-04-02T02:19:02;97135.13;;;0.34;81.36
43741;BME280;29352;48.708;9.290;2023-04-02T02:21:42;97133.66;;;0.39;81.43
43741;BME280;29352;48.708;9.290;2023-04-02T02:24:28;97135.09;;;0.50;81.37
43741;BME280;29352;48.708;9.290;2023-04-02T02:32:45;97147.69;;;0.55;81.54
43741;BME280;29352;48.708;9.290;2023-04-02T02:41:26;97153.56;;;0.65;81.26
43741;BME280;29352;48.708;9.290;2023-04-02T02:46:53;97157.69;;;0.59;81.88
43741;BME280;29352;48.708;9.290;2023-04-02T02:49:38;97156.25;;;0.48;82.29
43741;BME280;29352;48.708;9.290;2023-04-02T02:54:51;97160.69;;;0.48;82.57
43741;BME280;29352;48.708;9.290;2023-04-02T02:57:28;97162.34;;;0.80;81.60
43741;BME280;29352;48.708;9.290;2023-04-02T03:00:02;97171.59;;;0.68;81.99
43741;BME280;29352;48.708;9.290;2023-04-02T03:02:35;97169.31;;;0.65;82.48
43741;BME280;29352;48.708;9.290;2023-04-02T03:05:03;97169.78;;;0.68;82.21
43741;BME280;29352;48.708;9.290;2023-04-02T03:07:30;97175.03;;;0.68;82.31
43741;BME280;29352;48.708;9.290;2023-04-02T03:10:16;97171.13;;;0.56;82.84
43741;BME280;29352;48.708;9.290;2023-04-02T03:19:00;97182.75;;;0.70;82.92
43741;BME280;29352;48.708;9.290;2023-04-02T03:25:30;97191.66;;;0.61;83.22
43741;BME280;29352;48.708;9.290;2023-04-02T03:27:58;97195.56;;;0.65;82.83
43741;BME280;29352;48.708;9.290;2023-04-02T03:33:26;97201.66;;;0.65;82.55
43741;BME280;29352;48.708;9.290;2023-04-02T03:38:40;97205.06;;;0.74;82.73
43741;BME280;29352;48.708;9.290;2023-04-02T03:43:39;97209.00;;;0.78;82.61
43741;BME280;29352;48.708;9.290;2023-04-02T03:46:33;97218.31;;;0.89;82.38
43741;BME280;29352;48.708;9.290;2023-04-02T03:49:23;97213.91;;;0.73;82.62
43741;BME280;29352;48.708;9.290;2023-04-02T03:52:11;97219.63;;;0.85;82.18
43741;BME280;29352;48.708;9.290;2023-04-02T03:54:39;97221.78;;;0.81;81.88
43741;BME280;29352;48.708;9.290;2023-04-02T03:57:33;97225.72;;;0.77;82.19
43741;BME280;29352;48.708;9.290;2023-04-02T04:00:12;97224.50;;;0.57;82.66
43741;BME280;29352;48.708;9.290;2023-04-02T04:02:51;97228.25;;;0.62;83.18
43741;BME280;29352;48.708;9.290;2023-04-02T04:05:42;97230.09;;;0.54;83.75
43741;BME280;29352;48.708;9.290;2023-04-02T04:08:53;97227.09;;;0.65;83.59
43741;BME280;29352;48.708;9.290;2023-04-02T04:11:33;97232.38;;;0.57;83.88
43741;BME280;29352;48.708;9.290;2023-04-02T04:14:13;97236.94;;;0.63;83.39
43741;BME280;29352;48.708;9.290;2023-04-02T04:17:03;97238.78;;;0.54;82.79
43741;BME280;29352;48.708;9.290;2023-04-02T04:24:46;97247.09;;;0.74;82.03
43741;BME280;29352;48.708;9.290;2023-04-02T04:32:55;97258.66;;;0.48;82.54
43741;BME280;29352;48.708;9.290;2023-04-02T04:38:18;97259.47;;;0.49;82.89
43741;BME280;29352;48.708;9.290;2023-04-02T04:41:03;97263.91;;;0.48;83.54
43741;BME280;29352;48.708;9.290;2023-04-02T04:44:05;97263.19;;;0.63;83.41
43741;BME280;29352;48.708;9.290;2023-04-02T04:46:52;97271.72;;;0.73;83.07
43741;BME280;29352;48.708;9.290;2023-04-02T04:49:42;97277.28;;;0.70;83.79
43741;BME280;29352;48.708;9.290;2023-04-02T04:52:24;97278.47;;;0.67;83.59
43741;BME280;29352;48.708;9.290;2023-04-02T04:54:56;97278.28;;;0.69;83.06
43741;BME280;29352;48.708;9.290;2023-04-02T04:57:35;97280.94;;;0.61;83.05
43741;BME280;29352;48.708;9.290;2023-04-02T05:00:13;97285.53;;;0.67;83.22
43741;BME280;29352;48.708;9.290;2023-04-02T05:03:12;97281.63;;;0.55;83.72
43741;BME280;29352;48.708;9.290;2023-04-02T05:05:41;97282.94;;;0.51;84.07
43741;BME280;29352;48.708;9.290;2023-04-02T05:08:21;97285.56;;;0.51;84.15
43741;BME280;29352;48.708;9.290;2023-04-02T05:11:04;97288.81;;;0.61;83.90
43741;BME280;29352;48.708;9.290;2023-04-02T05:13:52;97287.69;;;0.63;83.48
43741;BME280;29352;48.708;9.290;2023-04-02T05:19:06;97295.69;;;0.70;83.21
43741;BME280;29352;48.708;9.290;2023-04-02T05:28:09;97297.16;;;0.81;82.07
43741;BME280;29352;48.708;9.290;2023-04-02T05:30:31;97303.03;;;0.83;82.09
43741;BME280;29352;48.708;9.290;2023-04-02T05:36:09;97306.16;;;0.94;81.87
43741;BME280;29352;48.708;9.290;2023-04-02T05:38:42;97310.56;;;1.02;81.59
43741;BME280;29352;48.708;9.290;2023-04-02T05:41:26;97308.75;;;1.03;81.57
43741;BME280;29352;48.708;9.290;2023-04-02T05:44:15;97321.84;;;1.11;81.63
43741;BME280;29352;48.708;9.290;2023-04-02T05:47:01;97327.13;;;1.03;82.52
43741;BME280;29352;48.708;9.290;2023-04-02T05:52:07;97332.06;;;0.98;81.47
43741;BME280;29352;48.708;9.290;2023-04-02T05:54:48;97334.91;;;0.88;81.88
43741;BME280;29352;48.708;9.290;2023-04-02T05:57:33;97338.28;;;1.05;81.50
43741;BME280;29352;48.708;9.290;2023-04-02T06:00:17;97338.09;;;1.14;81.45
43741;BME280;29352;48.708;9.290;2023-04-02T06:02:59;97344.06;;;1.39;81.04
43741;BME280;29352;48.708;9.290;2023-04-02T06:05:41;97345.25;;;1.37;81.09
43741;BME280;29352;48.708;9.290;2023-04-02T06:08:20;97343.84;;;1.57;80.62
43741;BME280;29352;48.708;9.290;2023-04-02T06:10:52;97353.78;;;0.91;82.10
43741;BME280;29352;48.708;9.290;2023-04-02T06:13:26;97357.28;;;1.23;82.18
43741;BME280;29352;48.708;9.290;2023-04-02T06:15:53;97351.63;;;1.42;82.50
43741;BME280;29352;48.708;9.290;2023-04-02T06:18:47;97363.63;;;1.76;82.06
43741;BME280;29352;48.708;9.290;2023-04-02T06:21:16;97358.44;;;1.60;82.05
43741;BME280;29352;48.708;9.290;2023-04-02T06:23:55;97365.91;;;1.48;82.75
43741;BME280;29352;48.708;9.290;2023-04-02T06:26:35;97367.66;;;1.56;82.33
43741;BME280;29352;48.708;9.290;2023-04-02T06:32:09;97376.22;;;1.58;81.55
43741;BME280;29352;48.708;9.290;2023-04-02T06:34:39;97371.22;;;1.71;81.53
43741;BME280;29352;48.708;9.290;2023-04-02T06:37:31;97374.56;;;2.42;79.63
43741;BME280;29352;48.708;9.290;2023-04-02T06:40:02;97387.28;;;1.84;79.76
43741;BME280;29352;48.708;9.290;2023-04-02T06:42:37;97386.50;;;2.07;80.50
43741;BME280;29352;48.708;9.290;2023-04-02T06:45:19;97399.50;;;2.54;77.82
43741;BME280;29352;48.708;9.290;2023-04-02T06:47:54;97404.72;;;1.85;83.92
43741;BME280;29352;48.708;9.290;2023-04-02T06:50:37;97407.06;;;1.25;82.92
43741;BME280;29352;48.708;9.290;2023-04-02T06:53:08;97408.25;;;2.01;79.81
43741;BME280;29352;48.708;9.290;2023-04-02T06:55:50;97411.09;;;1.91;80.59
43741;BME280;29352;48.708;9.290;2023-04-02T06:58:27;97417.75;;;2.10;79.49
43741;BME280;29352;48.708;9.290;2023-04-02T07:00:53;97424.97;;;2.08;80.63
43741;BME280;29352;48.708;9.290;2023-04-02T07:03:29;97422.00;;;2.11;80.97
43741;BME280;29352;48.708;9.290;2023-04-02T07:05:59;97427.00;;;2.29;77.55
43741;BME280;29352;48.708;9.290;2023-04-02T07:08:26;97436.81;;;2.12;78.83
43741;BME280;29352;48.708;9.290;2023-04-02T07:10:52;97431.91;;;2.32;77.29
43741;BME280;29352;48.708;9.290;2023-04-02T07:13:20;97440.56;;;2.18;79.26
43741;BME280;29352;48.708;9.290;2023-04-02T07:15:53;97442.91;;;2.12;77.43
43741;BME280;29352;48.708;9.290;2023-04-02T07:18:29;97452.88;;;2.71;75.95
43741;BME280;29352;48.708;9.290;2023-04-02T07:20:57;97446.56;;;2.34;78.78
43741;BME280;29352;48.708;9.290;2023-04-02T07:23:23;97457.75;;;2.36;77.48
43741;BME280;29352;48.708;9.290;2023-04-02T07:25:50;97458.47;;;1.91;79.42
43741;BME280;29352;48.708;9.290;2023-04-02T07:28:18;97464.09;;;1.80;79.46
43741;BME280;29352;48.708;9.290;2023-04-02T07:30:45;97463.97;;;2.35;78.86
43741;BME280;29352;48.708;9.290;2023-04-02T07:33:23;97462.31;;;2.89;76.10
43741;BME280;29352;48.708;9.290;2023-04-02T07:35:50;97467.72;;;2.64;78.00
43741;BME280;29352;48.708;9.290;2023-04-02T07:38:17;97473.41;;;2.53;78.81
43741;BME280;29352;48.708;9.290;2023-04-02T07:40:43;97472.53;;;2.60;78.78
43741;BME280;29352;48.708;9.290;2023-04-02T07:43:09;97475.88;;;2.31;79.04
43741;BME280;29352;48.708;9.290;2023-04-02T07:45:34;97478.81;;;3.20;76.45
43741;BME280;29352;48.708;9.290;2023-04-02T07:48:07;97479.34;;;3.16;76.80
43741;BME280;29352;48.708;9.290;2023-04-02T07:50:34;97495.44;;;3.06;76.49
43741;BME280;29352;48.708;9.290;2023-04-02T07:53:01;97490.31;;;3.04;76.41
43741;BME280;29352;48.708;9.290;2023-04-02T07:55:27;97487.44;;;3.14;76.17
43741;BME280;29352;48.708;9.290;2023-04-02T07:57:55;97491.69;;;3.38;74.91
43741;BME280;29352;48.708;9.290;2023-04-02T08:00:24;97503.97;;;3.46;76.10
43741;BME280;29352;48.708;9.290;2023-04-02T08:02:52;97501.78;;;3.35;75.45
43741;BME280;29352;48.708;9.290;2023-04-02T08:05:18;97503.97;;;2.39;77.62
43741;BME280;29352;48.708;9.290;2023-04-02T08:07:54;97509.91;;;2.64;78.52
43741;BME280;29352;48.708;9.290;2023-04-02T08:10:21;97509.81;;;2.57;77.58
43741;BME280;29352;48.708;9.290;2023-04-02T08:12:47;97514.34;;;2.41;77.74
43741;BME280;29352;48.708;9.290;2023-04-02T08:15:14;97513.66;;;2.70;76.71
43741;BME280;29352;48.708;9.290;2023-04-02T08:17:41;97521.88;;;2.75;75.92
43741;BME280;29352;48.708;9.290;2023-04-02T08:20:17;97525.31;;;2.75;76.01
43741;BME280;29352;48.708;9.290;2023-04-02T08:22:45;97526.41;;;2.81;75.32
43741;BME280;29352;48.708;9.290;2023-04-02T08:25:13;97530.69;;;2.59;75.54
43741;BME280;29352;48.708;9.290;2023-04-02T08:27:39;97532.72;;;2.49;76.59
43741;BME280;29352;48.708;9.290;2023-04-02T08:30:07;97528.00;;;2.90;75.35
43741;BME280;29352;48.708;9.290;2023-04-02T08:32:33;97535.34;;;3.03;75.19
43741;BME280;29352;48.708;9.290;2023-04-02T08:34:59;97536.88;;;3.12;74.78
43741;BME280;29352;48.708;9.290;2023-04-02T08:37:24;97541.94;;;2.99;75.05
43741;BME280;29352;48.708;9.290;2023-04-02T08:39:50;97546.81;;;3.10;74.98
43741;BME280;29352;48.708;9.290;2023-04-02T08:42:21;97541.41;;;3.26;74.62
43741;BME280;29352;48.708;9.290;2023-04-02T08:45:19;97549.28;;;3.35;75.06
43741;BME280;29352;48.708;9.290;2023-04-02T08:47:57;97557.41;;;3.48;74.39
43741;BME280;29352;48.708;9.290;2023-04-02T08:50:34;97549.19;;;3.43;73.52
43741;BME280;29352;48.708;9.290;2023-04-02T08:53:05;97553.66;;;3.57;73.61
43741;BME280;29352;48.708;9.290;2023-04-02T08:55:53;97563.50;;;3.63;72.83
43741;BME280;29352;48.708;9.290;2023-04-02T09:04:19;97565.53;;;4.20;71.17
43741;BME280;29352;48.708;9.290;2023-04-02T09:06:48;97571.72;;;4.27;71.10
43741;BME280;29352;48.708;9.290;2023-04-02T09:09:19;97567.97;;;4.37;71.03
43741;BME280;29352;48.708;9.290;2023-04-02T09:14:23;97572.22;;;4.67;70.54
43741;BME280;29352;48.708;9.290;2023-04-02T09:17:22;97575.75;;;4.74;69.42
43741;BME280;29352;48.708;9.290;2023-04-02T09:19:56;97577.56;;;4.38;70.00
43741;BME280;29352;48.708;9.290;2023-04-02T09:22:29;97587.38;;;3.85;71.49
43741;BME280;29352;48.708;9.290;2023-04-02T09:24:59;97587.25;;;4.67;70.45
43741;BME280;29352;48.708;9.290;2023-04-02T09:27:32;97581.78;;;5.05;68.23
43741;BME280;29352;48.708;9.290;2023-04-02T09:33:02;97592.03;;;4.93;68.04
43741;BME280;29352;48.708;9.290;2023-04-02T09:36:16;97596.03;;;4.89;69.43
43741;BME280;29352;48.708;9.290;2023-04-02T09:38:24;97598.44;;;5.27;68.38
43741;BME280;29352;48.708;9.290;2023-04-02T09:43:33;97606.75;;;5.02;68.70
43741;BME280;29352;48.708;9.290;2023-04-02T09:48:42;97620.28;;;4.56;69.44
43741;BME280;29352;48.708;9.290;2023-04-02T09:51:20;97624.91;;;4.69;68.92
43741;BME280;29352;48.708;9.290;2023-04-02T09:56:33;97625.84;;;4.97;68.20
43741;BME280;29352;48.708;9.290;2023-04-02T09:59:15;97632.38;;;4.36;70.32
43741;BME280;29352;48.708;9.290;2023-04-02T10:01:55;97636.56;;;4.15;73.04
43741;BME280;29352;48.708;9.290;2023-04-02T10:04:43;97644.13;;;4.03;73.60
43741;BME280;29352;48.708;9.290;2023-04-02T10:07:35;97639.75;;;4.25;72.21
43741;BME280;29352;48.708;9.290;2023-04-02T10:10:23;97646.59;;;4.35;71.60
43741;BME280;29352;48.708;9.290;2023-04-02T10:13:02;97646.69;;;4.12;71.39
43741;BME280;29352;48.708;9.290;2023-04-02T10:18:45;97648.50;;;3.96;71.83
43741;BME280;29352;48.708;9.290;2023-04-02T10:21:30;97660.53;;;4.14;72.53
43741;BME280;29352;48.708;9.290;2023-04-02T10:24:00;97656.97;;;4.07;71.47
43741;BME280;29352;48.708;9.290;2023-04-02T10:26:51;97658.56;;;4.60;70.19
43741;BME280;29352;48.708;9.290;2023-04-02T10:32:28;97662.81;;;4.17;72.04
43741;BME280;29352;48.708;9.290;2023-04-02T10:35:02;97664.72;;;4.23;73.40
43741;BME280;29352;48.708;9.290;2023-04-02T10:40:47;97671.91;;;4.14;72.72
43741;BME280;29352;48.708;9.290;2023-04-02T10:49:20;97678.84;;;4.15;73.06
43741;BME280;29352;48.708;9.290;2023-04-02T10:51:57;97679.84;;;4.44;72.15
43741;BME280;29352;48.708;9.290;2023-04-02T10:57:58;97690.47;;;4.06;71.95
43741;BME280;29352;48.708;9.290;2023-04-02T11:00:33;97692.22;;;4.14;71.38
43741;BME280;29352;48.708;9.290;2023-04-02T11:03:30;97696.41;;;4.23;71.60
43741;BME280;29352;48.708;9.290;2023-04-02T11:06:17;97697.97;;;4.17;72.28
43741;BME280;29352;48.708;9.290;2023-04-02T11:08:51;97703.75;;;4.50;71.53
43741;BME280;29352;48.708;9.290;2023-04-02T11:11:27;97700.28;;;4.35;71.75
43741;BME280;29352;48.708;9.290;2023-04-02T11:14:09;97696.25;;;4.39;71.46
43741;BME280;29352;48.708;9.290;2023-04-02T11:16:56;97709.13;;;4.57;70.69
43741;BME280;29352;48.708;9.290;2023-04-02T11:19:32;97710.06;;;4.12;72.50
43741;BME280;29352;48.708;9.290;2023-04-02T11:22:12;97712.91;;;4.25;72.91
43741;BME280;29352;48.708;9.290;2023-04-02T11:24:48;97709.84;;;4.51;71.90
43741;BME280;29352;48.708;9.290;2023-04-02T11:27:17;97713.84;;;4.32;71.86
43741;BME280;29352;48.708;9.290;2023-04-02T11:32:49;97717.34;;;4.62;69.71
43741;BME280;29352;48.708;9.290;2023-04-02T11:37:58;97718.16;;;4.48;70.78
43741;BME280;29352;48.708;9.290;2023-04-02T11:40:42;97727.16;;;4.68;70.35
43741;BME280;29352;48.708;9.290;2023-04-02T11:48:33;97727.56;;;4.65;71.31
43741;BME280;29352;48.708;9.290;2023-04-02T11:53:45;97729.09;;;4.74;71.28
43741;BME280;29352;48.708;9.290;2023-04-02T11:56:39;97734.13;;;4.69;71.52
43741;BME280;29352;48.708;9.290;2023-04-02T11:59:37;97741.03;;;4.70;70.14
43741;BME280;29352;48.708;9.290;2023-04-02T12:02:23;97736.47;;;4.94;69.97
43741;BME280;29352;48.708;9.290;2023-04-02T12:05:22;97748.50;;;5.11;70.08
43741;BME280;29352;48.708;9.290;2023-04-02T12:08:17;97737.22;;;4.88;71.02
43741;BME280;29352;48.708;9.290;2023-04-02T12:10:59;97747.59;;;5.04;70.29
43741;BME280;29352;48.708;9.290;2023-04-02T12:16:05;97744.88;;;5.34;70.84
43741;BME280;29352;48.708;9.290;2023-04-02T12:18:34;97753.97;;;4.95;71.56
43741;BME280;29352;48.708;9.290;2023-04-02T12:21:00;97751.88;;;5.05;69.98
43741;BME280;29352;48.708;9.290;2023-04-02T12:23:29;97754.41;;;5.13;69.15
43741;BME280;29352;48.708;9.290;2023-04-02T12:26:03;97751.91;;;5.27;69.59
43741;BME280;29352;48.708;9.290;2023-04-02T12:28:34;97755.66;;;5.68;69.61
43741;BME280;29352;48.708;9.290;2023-04-02T12:33:36;97758.50;;;5.67;68.94
43741;BME280;29352;48.708;9.290;2023-04-02T12:41:25;97750.19;;;5.91;68.07
43741;BME280;29352;48.708;9.290;2023-04-02T12:44:14;97758.38;;;5.97;67.79
43741;BME280;29352;48.708;9.290;2023-04-02T12:46:42;97763.41;;;6.41;66.98
43741;BME280;29352;48.708;9.290;2023-04-02T12:49:38;97766.88;;;6.41;66.57
43741;BME280;29352;48.708;9.290;2023-04-02T12:52:10;97761.16;;;6.66;65.14
43741;BME280;29352;48.708;9.290;2023-04-02T12:54:45;97763.53;;;6.54;66.10
43741;BME280;29352;48.708;9.290;2023-04-02T12:57:29;97767.81;;;6.83;65.53
43741;BME280;29352;48.708;9.290;2023-04-02T13:02:46;97767.44;;;6.09;67.86
43741;BME280;29352;48.708;9.290;2023-04-02T13:08:23;97776.53;;;6.21;66.46
43741;BME280;29352;48.708;9.290;2023-04-02T13:11:03;97776.53;;;5.78;67.76
43741;BME280;29352;48.708;9.290;2023-04-02T13:13:38;97777.47;;;5.71;66.86
43741;BME280;29352;48.708;9.290;2023-04-02T13:16:24;97773.50;;;6.03;67.71
43741;BME280;29352;48.708;9.290;2023-04-02T13:21:43;97775.31;;;6.24;66.07
43741;BME280;29352;48.708;9.290;2023-04-02T13:24:16;97782.28;;;6.25;67.47
43741;BME280;29352;48.708;9.290;2023-04-02T13:26:47;97781.81;;;6.43;65.68
43741;BME280;29352;48.708;9.290;2023-04-02T13:29:24;97779.81;;;6.51;65.96
43741;BME280;29352;48.708;9.290;2023-04-02T13:31:54;97781.72;;;6.08;66.64
43741;BME280;29352;48.708;9.290;2023-04-02T13:34:22;97792.88;;;6.25;67.64
43741;BME280;29352;48.708;9.290;2023-04-02T13:36:48;97785.56;;;6.05;68.25
43741;BME280;29352;48.708;9.290;2023-04-02T13:39:13;97785.22;;;6.36;66.75
43741;BME280;29352;48.708;9.290;2023-04-02T13:41:46;97790.28;;;5.88;68.24
43741;BME280;29352;48.708;9.290;2023-04-02T13:44:22;97786.94;;;6.23;67.76
43741;BME280;29352;48.708;9.290;2023-04-02T13:46:49;97790.63;;;5.64;70.13
43741;BME280;29352;48.708;9.290;2023-04-02T13:49:15;97786.06;;;5.21;72.76
43741;BME280;29352;48.708;9.290;2023-04-02T13:51:44;97801.41;;;5.11;73.29
43741;BME280;29352;48.708;9.290;2023-04-02T13:54:19;97795.38;;;4.73;75.08
43741;BME280;29352;48.708;9.290;2023-04-02T13:56:49;97803.59;;;5.08;73.33
43741;BME280;29352;48.708;9.290;2023-04-02T13:59:15;97801.59;;;4.65;73.26
43741;BME280;29352;48.708;9.290;2023-04-02T14:01:44;97806.03;;;4.65;74.34
43741;BME280;29352;48.708;9.290;2023-04-02T14:04:17;97814.63;;;4.44;75.03
43741;BME280;29352;48.708;9.290;2023-04-02T14:09:43;97816.72;;;4.11;76.75
43741;BME280;29352;48.708;9.290;2023-04-02T14:15:11;97821.81;;;4.12;76.11
43741;BME280;29352;48.708;9.290;2023-04-02T14:18:10;97827.16;;;4.04;75.85
43741;BME280;29352;48.708;9.290;2023-04-02T14:27:08;97839.25;;;3.75;76.30
43741;BME280;29352;48.708;9.290;2023-04-02T14:29:54;97836.00;;;3.65;76.98
43741;BME280;29352;48.708;9.290;2023-04-02T14:35:30;97848.53;;;3.63;77.75
43741;BME280;29352;48.708;9.290;2023-04-02T14:41:03;97850.09;;;3.80;77.66
43741;BME280;29352;48.708;9.290;2023-04-02T14:43:50;97856.63;;;3.62;78.31
43741;BME280;29352;48.708;9.290;2023-04-02T14:46:27;97859.31;;;3.53;78.78
43741;BME280;29352;48.708;9.290;2023-04-02T14:49:20;97861.38;;;3.35;79.02
43741;BME280;29352;48.708;9.290;2023-04-02T14:51:50;97862.88;;;3.29;79.50
43741;BME280;29352;48.708;9.290;2023-04-02T14:55:00;97857.94;;;3.26;79.05
43741;BME280;29352;48.708;9.290;2023-04-02T14:57:37;97866.31;;;3.22;79.35
43741;BME280;29352;48.708;9.290;2023-04-02T15:03:05;97867.53;;;3.03;79.90
43741;BME280;29352;48.708;9.290;2023-04-02T15:05:44;97873.84;;;3.49;78.84
43741;BME280;29352;48.708;9.290;2023-04-02T15:08:18;97866.19;;;3.15;80.30
43741;BME280;29352;48.708;9.290;2023-04-02T15:14:24;97874.50;;;2.96;81.01
43741;BME280;29352;48.708;9.290;2023-04-02T15:16:52;97887.81;;;3.02;80.96
43741;BME280;29352;48.708;9.290;2023-04-02T15:19:18;97883.03;;;2.98;80.21
43741;BME280;29352;48.708;9.290;2023-04-02T15:21:58;97890.78;;;2.99;79.99
43741;BME280;29352;48.708;9.290;2023-04-02T15:30:52;97905.13;;;2.97;78.74
43741;BME280;29352;48.708;9.290;2023-04-02T15:38:43;97907.28;;;2.77;79.81
43741;BME280;29352;48.708;9.290;2023-04-02T15:49:46;97935.28;;;2.37;82.27
43741;BME280;29352;48.708;9.290;2023-04-02T15:55:35;97944.16;;;2.36;82.13
43741;BME280;29352;48.708;9.290;2023-04-02T15:58:15;97958.47;;;2.25;81.73
43741;BME280;29352;48.708;9.290;2023-04-02T16:01:13;97964.66;;;2.00;83.57
43741;BME280;29352;48.708;9.290;2023-04-02T16:07:17;97968.19;;;1.82;84.24
43741;BME280;29352;48.708;9.290;2023-04-02T16:12:39;97973.38;;;2.00;83.35
43741;BME280;29352;48.708;9.290;2023-04-02T16:15:29;97978.56;;;1.84;83.48
43741;BME280;29352;48.708;9.290;2023-04-02T16:18:15;97983.53;;;1.87;82.45
43741;BME280;29352;48.708;9.290;2023-04-02T16:20:52;97979.19;;;1.78;82.08
43741;BME280;29352;48.708;9.290;2023-04-02T16:23:28;97982.78;;;1.77;81.80
43741;BME280;29352;48.708;9.290;2023-04-02T16:26:30;97979.00;;;1.71;81.33
43741;BME280;29352;48.708;9.290;2023-04-02T16:34:58;97995.69;;;1.54;81.31
43741;BME280;29352;48.708;9.290;2023-04-02T16:46:46;98018.69;;;1.26;79.63
43741;BME280;29352;48.708;9.290;2023-04-02T16:49:35;98017.84;;;0.81;80.57
43741;BME280;29352;48.708;9.290;2023-04-02T16:52:31;98026.91;;;1.05;80.34
43741;BME280;29352;48.708;9.290;2023-04-02T17:09:55;98065.66;;;0.85;79.52
43741;BME280;29352;48.708;9.290;2023-04-02T17:12:45;98069.78;;;0.87;79.21
43741;BME280;29352;48.708;9.290;2023-04-02T17:15:21;98062.72;;;0.70;79.79
43741;BME280;29352;48.708;9.290;2023-04-02T17:17:56;98072.94;;;0.73;79.19
43741;BME280;29352;48.708;9.290;2023-04-02T17:20:25;98085.47;;;0.79;79.81
43741;BME280;29352;48.708;9.290;2023-04-02T17:22:52;98082.59;;;0.55;80.73
43741;BME280;29352;48.708;9.290;2023-04-02T17:25:24;98090.53;;;0.45;80.96
43741;BME280;29352;48.708;9.290;2023-04-02T17:27:54;98098.13;;;0.48;80.90
43741;BME280;29352;48.708;9.290;2023-04-02T17:30:43;98100.00;;;0.28;80.25
43741;BME280;29352;48.708;9.290;2023-04-02T17:33:14;98116.91;;;0.16;80.97
43741;BME280;29352;48.708;9.290;2023-04-02T17:38:43;98117.47;;;0.10;80.35
43741;BME280;29352;48.708;9.290;2023-04-02T17:42:25;98125.06;;;0.13;79.78
43741;BME280;29352;48.708;9.290;2023-04-02T17:48:04;98135.94;;;-0.19;79.94
43741;BME280;29352;48.708;9.290;2023-04-02T18:08:17;98194.38;;;-0.66;81.02
43741;BME280;29352;48.708;9.290;2023-04-02T18:16:49;98204.16;;;-0.49;80.51
43741;BME280;29352;48.708;9.290;2023-04-02T18:19:40;98213.00;;;-0.50;80.27
43741;BME280;29352;48.708;9.290;2023-04-02T18:22:42;98219.22;;;-0.51;80.30
43741;BME280;29352;48.708;9.290;2023-04-02T18:34:43;98238.78;;;-0.84;80.93
43741;BME280;29352;48.708;9.290;2023-04-02T18:43:33;98257.94;;;-0.83;80.50
43741;BME280;29352;48.708;9.290;2023-04-02T18:48:57;98267.56;;;-0.93;79.75
43741;BME280;29352;48.708;9.290;2023-04-02T18:51:30;98282.44;;;-1.04;80.15